Date,TemperatureHighF,TemperatureAvgF,TemperatureLowF,DewpointHighF,DewpointAvgF,DewpointLowF,HumidityHigh,HumidityAvg,HumidityLow,PressureMaxIn,PressureMinIn,WindSpeedMaxMPH,WindSpeedAvgMPH,GustSpeedMaxMPH,PrecipitationSumIn
2013-1-1,24.9,20.5,13.0,22.5,19.0,11.4,96,94,90,30.60,30.42,5,0,5,0.00
2013-1-2,27.6,20.7,8.3,24.6,18.5,6.0,94,91,84,30.59,30.44,5,0,5,0.00
2013-1-3,24.2,11.6,5.0,21.8,9.3,2.5,96,90,86,30.44,30.34,7,0,7,0.00
2013-1-4,29.1,23.1,10.5,25.3,21.2,8.9,95,92,83,30.42,30.35,7,0,7,0.00
2013-1-5,32.1,26.4,21.5,29.5,24.7,20.0,96,93,87,30.36,30.15,10,1,10,0.01
2013-1-6,28.7,26.2,23.0,28.1,25.1,21.8,98,95,92,30.16,30.02,9,1,9,0.00
2013-1-7,36.7,32.8,28.7,36.3,32.1,28.2,99,97,90,30.02,29.77,17,3,17,0.30
2013-1-8,40.1,35.7,32.1,38.6,34.6,30.5,99,96,90,30.07,29.77,18,2,18,0.51
2013-1-9,43.4,38.4,31.1,38.9,34.8,29.5,95,87,76,29.78,29.52,19,3,19,0.39
2013-1-10,31.7,28.1,22.7,29.6,24.6,21.5,95,87,76,29.84,29.68,13,2,13,0.01
2013-1-11,29.4,20.4,5.8,22.9,16.6,3.3,94,86,62,30.23,29.84,11,2,12,0.02
2013-1-12,20.9,15.2,4.4,19.6,13.4,2.0,95,92,87,30.34,30.21,8,1,8,0.00
2013-1-13,21.6,14.4,8.8,17.5,12.1,6.3,94,90,81,30.44,30.33,6,0,6,0.00
2013-1-14,25.4,20.0,11.4,22.1,17.9,9.3,95,91,85,30.45,30.30,8,0,8,0.00
2013-1-15,28.7,20.0,9.6,26.9,18.2,7.4,95,93,89,30.59,30.44,9,0,9,0.03
2013-1-16,29.8,21.1,15.2,24.7,19.4,13.5,96,93,81,30.57,30.52,5,0,5,0.00
2013-1-17,27.9,18.9,5.8,22.6,16.6,3.5,95,91,77,30.58,30.40,7,0,7,0.00
2013-1-18,28.0,18.9,9.4,23.8,17.1,7.3,95,93,82,30.40,30.23,11,0,11,0.00
2013-1-19,32.8,20.3,9.2,25.4,17.3,7.1,96,88,68,30.45,30.34,8,0,8,0.00
2013-1-20,31.9,16.4,7.0,25.5,13.7,4.7,94,89,76,30.51,30.41,5,0,5,0.00
2013-1-21,27.2,12.0,5.8,21.3,9.5,3.5,94,90,77,30.43,30.32,5,0,5,0.00
2013-1-22,22.7,13.6,2.7,20.3,11.6,0.2,95,91,88,30.38,30.18,6,0,6,0.00
2013-1-23,32.8,26.2,17.3,32.0,24.5,16.4,97,94,84,30.19,29.88,14,2,15,0.00
2013-1-24,33.2,25.0,22.0,31.7,23.9,20.8,97,96,94,30.22,30.04,9,1,9,0.07
2013-1-25,39.2,35.2,30.9,37.2,34.2,30.1,98,96,91,30.11,29.83,9,0,9,0.28
2013-1-26,35.4,31.8,29.8,34.9,31.2,29.3,98,98,96,29.86,29.79,10,2,10,0.01
2013-1-27,30.8,28.6,26.1,30.3,27.9,25.4,98,97,96,29.95,29.88,8,2,8,0.01
2013-1-28,30.8,28.8,27.4,30.3,28.1,26.5,98,97,96,29.88,29.82,10,2,10,0.00
2013-1-29,34.4,32.5,25.2,33.7,31.4,24.5,98,96,89,30.13,29.81,8,1,8,0.09
2013-1-30,41.1,33.4,28.3,37.5,32.4,27.8,99,96,87,30.18,30.05,9,2,10,0.04
2013-1-31,39.9,35.3,32.8,39.4,34.9,32.5,100,98,95,30.21,30.10,9,1,9,0.00
2013-2-1,37.9,30.9,23.2,35.0,30.1,22.4,100,97,88,30.40,30.13,5,0,5,0.01
2013-2-2,32.2,28.5,18.2,31.5,27.9,17.0,98,98,95,30.46,30.22,9,1,9,0.00
2013-2-3,32.2,26.4,23.0,31.6,25.8,22.2,100,98,97,30.23,30.15,4,0,5,0.01
2013-2-4,38.1,32.5,28.3,36.6,31.5,27.6,99,96,93,30.06,29.91,5,0,8,0.00
2013-2-5,39.9,34.0,27.4,36.8,32.7,26.9,100,95,87,29.91,29.76,12,1,12,0.00
2013-2-6,41.4,34.5,30.5,35.0,32.1,29.2,98,91,76,29.98,29.85,14,2,14,0.00
2013-2-7,40.4,34.7,31.1,35.2,31.9,29.3,96,90,77,29.96,29.81,10,1,10,0.01
2013-2-8,38.0,30.8,25.7,33.6,29.4,24.8,98,95,84,30.06,29.96,8,0,8,0.01
2013-2-9,32.9,27.3,20.6,30.1,26.1,19.3,98,95,87,30.16,30.00,7,0,7,0.00
2013-2-10,34.1,24.2,18.5,30.9,22.8,17.1,97,95,87,30.26,30.16,6,0,6,0.00
2013-2-11,37.7,26.7,15.7,33.1,24.3,14.3,97,91,77,30.20,30.15,8,0,8,0.00
2013-2-12,41.4,36.5,31.0,36.7,34.0,29.9,98,91,79,30.24,30.08,13,3,13,0.00
2013-2-13,40.6,35.3,25.7,34.6,31.9,24.5,100,88,72,30.23,30.07,10,1,10,0.01
2013-2-14,41.2,31.4,19.8,33.8,28.2,18.6,97,88,71,30.50,30.29,8,0,8,0.00
2013-2-15,47.8,31.6,21.4,37.5,28.5,20.2,100,89,64,30.50,30.21,8,0,8,0.01
2013-2-16,42.2,30.1,24.3,37.1,28.5,23.6,98,94,81,30.21,29.97,9,1,9,0.00
2013-2-17,41.6,32.5,22.3,31.7,27.1,21.0,95,81,64,30.05,29.91,10,1,10,0.00
2013-2-18,39.3,30.1,20.4,32.6,26.3,19.1,97,86,67,30.04,29.73,8,0,8,0.00
2013-2-19,35.4,31.3,26.2,33.5,30.0,25.5,97,95,90,29.82,29.65,5,0,5,0.15
2013-2-20,36.9,29.4,21.0,30.6,27.1,19.8,100,92,62,29.94,29.82,8,0,8,0.01
2013-2-21,37.1,32.1,20.6,33.8,30.0,19.4,97,92,84,29.97,29.91,10,2,10,0.04
2013-2-22,36.7,33.0,28.5,35.8,31.7,27.2,98,95,81,29.93,29.56,21,4,21,0.36
2013-2-23,41.2,30.8,21.5,30.6,25.9,20.3,100,83,57,30.16,29.65,14,2,21,0.01
2013-2-24,37.4,29.8,21.3,30.5,26.6,20.1,96,88,73,30.26,30.00,9,2,13,0.01
2013-2-25,41.9,34.1,27.8,35.0,29.6,24.2,97,84,67,30.06,29.83,18,3,18,0.23
2013-2-26,40.1,30.9,23.6,29.4,26.0,22.4,96,83,59,30.25,30.06,15,2,15,0.00
2013-2-27,42.9,34.0,25.7,32.3,28.4,24.3,95,81,61,30.21,30.14,11,1,11,0.00
2013-2-28,39.8,36.0,30.5,38.4,35.2,28.7,99,97,93,30.28,30.17,6,0,6,0.16
2013-3-1,49.1,43.5,36.5,45.8,42.0,36.0,100,95,87,30.29,30.17,16,3,16,0.01
2013-3-2,51.7,42.8,34.1,43.7,39.5,33.6,99,89,72,30.18,29.79,14,2,14,0.00
2013-3-3,43.2,34.8,27.1,36.3,24.5,19.6,88,67,41,30.10,29.79,18,2,18,0.00
2013-3-4,43.4,31.4,23.3,28.4,23.8,21.1,93,75,43,30.22,30.01,8,1,8,0.00
2013-3-5,38.9,33.1,27.9,30.1,25.5,21.4,88,74,58,30.02,29.74,10,2,10,0.00
2013-3-6,46.6,36.6,32.1,40.0,33.3,28.6,97,88,76,29.75,29.48,15,2,15,0.18
2013-3-7,44.4,35.1,28.4,37.9,32.5,27.7,98,91,64,29.98,29.75,11,1,11,0.39
2013-3-8,42.6,31.6,26.4,38.1,30.1,25.7,98,94,78,30.08,29.96,9,1,9,0.01
2013-3-9,50.6,35.9,24.0,36.4,29.4,22.9,98,80,47,30.34,30.08,11,1,11,0.01
2013-3-10,42.4,33.6,25.1,36.1,29.9,24.3,97,87,69,30.33,30.19,4,1,12,0.00
2013-3-11,47.6,36.0,28.5,31.4,28.4,23.4,98,78,39,30.26,30.15,3,0,10,0.01
2013-3-12,54.0,44.0,35.0,44.8,39.5,30.7,94,84,71,30.15,29.95,6,2,17,0.00
2013-3-13,55.4,51.2,42.1,46.1,43.3,38.8,92,75,66,30.06,29.96,12,3,13,0.01
2013-3-14,59.5,49.5,38.9,47.8,42.5,38.0,97,78,59,30.00,29.85,5,1,14,0.00
2013-3-15,56.9,48.4,34.4,44.9,39.5,32.6,96,73,53,30.03,29.89,13,2,13,0.00
2013-3-16,52.4,41.4,35.4,42.6,37.8,31.5,97,88,61,29.93,29.59,17,2,17,0.07
2013-3-17,45.9,37.1,28.4,30.7,23.5,18.0,88,60,36,29.95,29.61,20,3,20,0.00
2013-3-18,46.8,33.3,24.9,30.9,24.2,19.2,92,72,34,30.11,29.89,24,3,24,0.01
2013-3-19,49.7,34.9,19.5,32.8,24.9,17.8,94,70,40,30.20,29.74,10,1,10,0.00
2013-3-20,53.0,42.6,33.2,49.1,39.1,30.0,97,88,64,29.74,29.38,24,3,24,0.42
2013-3-21,43.6,33.5,26.4,30.3,25.3,21.5,92,73,46,29.95,29.69,19,4,19,0.00
2013-3-22,33.7,24.2,20.2,25.0,21.4,18.5,95,89,65,30.20,29.94,5,0,5,0.00
2013-3-23,42.4,28.3,16.6,29.0,21.5,14.9,95,78,42,30.29,30.20,14,1,14,0.01
2013-3-24,45.2,31.3,20.6,29.2,20.2,11.8,96,69,27,30.30,30.13,11,1,11,0.00
2013-3-25,25.1,23.4,21.9,20.7,19.8,18.2,88,86,82,30.14,30.10,4,0,4,0.00
2013-3-26,55.6,38.9,28.1,37.3,29.0,24.5,90,70,42,29.93,29.85,3,1,10,0.00
2013-3-27,53.6,42.7,33.3,43.9,36.7,30.7,96,80,64,29.89,29.85,2,0,8,0.00
2013-3-28,58.6,43.2,32.2,43.5,38.8,31.5,98,86,52,29.98,29.89,4,0,12,0.00
2013-3-29,61.2,43.9,29.7,43.2,35.1,29.0,98,75,35,30.12,29.98,16,1,16,0.00
2013-3-30,64.3,45.0,29.0,46.0,35.4,28.2,98,74,35,30.18,30.02,9,1,9,0.00
2013-3-31,67.2,47.4,30.2,42.8,35.8,29.5,98,71,28,30.02,29.81,8,1,8,0.00
2013-4-1,70.0,51.0,34.2,44.1,38.4,32.8,96,67,33,29.85,29.79,9,1,9,0.00
2013-4-2,64.6,51.7,39.2,47.4,42.8,36.7,96,74,43,29.94,29.85,16,3,16,0.00
2013-4-3,63.4,47.5,35.5,46.3,40.0,34.5,97,77,41,29.98,29.88,8,1,13,0.00
2013-4-4,56.4,47.2,37.2,50.5,43.4,35.2,97,87,63,29.89,29.60,10,1,10,0.13
2013-4-5,59.6,51.6,43.5,48.9,43.3,39.9,96,74,53,29.73,29.67,24,5,24,0.07
2013-4-6,54.4,47.6,43.4,44.3,39.1,32.8,97,74,47,29.73,29.67,21,4,21,0.04
2013-4-7,43.4,42.1,40.3,37.6,36.5,35.7,90,81,75,29.69,29.62,8,2,11,0.00
2013-4-8,47.4,38.0,30.2,37.6,33.4,27.9,97,84,61,30.13,29.64,2,1,10,0.23
2013-4-9,52.9,40.5,26.9,39.7,31.9,25.7,95,74,49,30.25,30.13,2,1,10,0.06
2013-4-10,59.2,47.7,41.1,47.1,37.9,33.1,87,70,45,30.11,29.69,8,3,22,0.08
2013-4-11,53.3,39.5,30.6,37.0,31.4,27.3,93,75,37,30.00,29.90,5,2,16,0.00
2013-4-12,53.1,38.7,26.9,39.0,31.6,25.4,96,78,47,29.99,29.52,19,2,19,0.07
2013-4-13,48.1,37.3,30.2,38.6,26.5,19.9,96,66,34,29.73,29.47,11,2,24,0.07
2013-4-14,44.4,33.9,27.2,34.5,29.2,24.0,96,84,59,29.84,29.73,9,1,9,0.00
2013-4-15,46.4,35.9,30.0,30.7,23.6,17.9,91,63,38,30.02,29.80,15,3,18,0.00
2013-4-16,46.7,36.6,27.0,23.5,17.7,14.6,74,47,31,30.27,30.02,16,3,16,0.00
2013-4-17,52.7,36.9,19.7,26.3,19.4,12.9,90,55,25,30.36,30.24,12,1,12,0.00
2013-4-18,54.4,47.9,25.2,38.8,34.7,21.9,87,61,46,30.25,30.07,14,3,14,0.00
2013-4-19,56.6,47.4,42.5,48.2,43.6,37.4,97,87,66,30.07,29.78,16,3,16,0.20
2013-4-20,59.4,46.9,34.3,42.7,36.2,31.9,97,69,41,29.97,29.84,21,4,21,0.00
2013-4-21,52.7,41.3,31.4,40.3,34.3,29.6,94,77,53,30.17,29.93,15,2,15,0.01
2013-4-22,51.9,39.4,28.2,32.7,25.2,17.6,91,61,28,30.39,30.17,14,2,14,0.00
2013-4-23,56.9,40.1,23.2,32.2,26.0,19.1,92,61,29,30.28,30.11,11,1,11,0.00
2013-4-24,62.9,50.5,26.8,38.0,32.4,25.3,94,53,32,30.19,29.86,13,2,13,0.00
2013-4-25,68.8,49.5,28.2,41.7,34.4,26.4,94,62,27,29.93,29.82,12,1,12,0.00
2013-4-26,72.5,54.8,35.0,47.4,39.5,33.1,95,61,24,30.04,29.92,15,2,15,0.00
2013-4-27,49.6,47.3,46.3,41.2,39.9,37.5,80,75,66,29.96,29.95,7,0,7,0.00
2013-4-28,59.2,51.8,37.9,39.9,34.1,29.6,92,52,41,29.92,29.72,14,4,20,0.00
2013-4-29,54.1,46.4,33.2,38.2,26.3,16.9,80,48,26,29.84,29.60,20,4,22,0.00
2013-4-30,49.9,37.9,26.0,30.9,24.0,19.4,89,59,34,30.25,29.83,16,1,16,0.01
2013-5-1,57.2,38.9,21.1,32.7,25.2,19.4,94,64,27,30.52,30.25,10,1,10,0.00
2013-5-2,66.5,48.6,27.7,40.6,31.2,25.0,91,57,22,30.52,30.14,10,1,10,0.00
2013-5-3,69.3,56.5,43.3,44.0,40.4,35.0,89,57,33,30.15,30.02,14,2,14,0.00
2013-5-4,71.0,57.7,42.5,44.0,37.4,30.4,88,51,25,30.12,29.92,16,2,16,0.00
2013-5-5,76.1,61.0,44.9,43.4,36.4,31.5,70,42,23,29.92,29.69,9,2,14,0.00
2013-5-6,80.8,61.2,40.6,50.6,39.6,30.4,88,51,17,29.73,29.57,13,1,13,0.00
2013-5-7,82.8,62.3,39.5,51.6,43.6,36.2,94,58,20,29.71,29.61,9,1,9,0.00
2013-5-8,83.4,63.9,45.0,55.1,48.4,41.6,92,62,28,29.82,29.71,9,1,9,0.00
2013-5-9,84.7,64.6,45.0,57.8,48.0,36.4,94,62,18,29.90,29.81,8,1,8,0.00
2013-5-10,85.8,65.3,43.6,55.4,46.3,37.3,92,58,19,29.98,29.88,13,1,13,0.00
2013-5-11,85.2,65.7,47.6,56.8,49.1,41.9,90,61,25,29.94,29.81,14,1,14,0.00
2013-5-12,78.3,64.3,51.7,58.5,52.2,47.6,90,67,44,29.83,29.77,16,1,16,0.00
2013-5-13,62.6,53.5,44.2,54.2,48.8,37.1,95,84,67,29.94,29.75,15,2,15,0.25
2013-5-14,60.6,47.5,34.7,40.2,35.0,28.1,94,66,32,30.03,29.93,11,1,11,0.05
2013-5-15,63.5,49.9,32.3,45.6,37.9,30.8,100,68,35,29.97,29.82,6,0,7,0.00
2013-5-16,61.4,52.6,44.9,49.5,45.9,42.8,94,79,56,29.82,29.72,8,0,8,0.03
2013-5-17,65.5,52.7,40.3,54.2,46.7,39.4,97,81,53,29.81,29.72,14,1,14,0.04
2013-5-18,60.1,51.5,45.4,48.3,44.2,41.5,93,77,52,29.93,29.80,11,2,11,0.00
2013-5-19,61.7,53.2,46.0,53.0,46.4,42.0,95,78,63,30.10,29.99,3,1,11,0.06
2013-5-20,69.0,54.2,36.5,53.0,44.4,35.7,98,73,43,30.14,29.75,2,1,12,0.00
2013-5-21,68.1,51.1,37.3,51.7,44.8,36.5,97,81,49,29.73,29.46,7,1,20,0.11
2013-5-22,50.2,41.6,32.2,41.0,36.6,31.0,98,84,61,29.92,29.65,8,1,14,0.13
2013-5-23,57.7,43.4,29.6,43.8,36.6,28.6,98,79,46,29.94,29.85,11,1,11,0.03
2013-5-24,53.7,41.5,29.8,46.2,38.8,28.9,97,91,69,29.92,29.83,17,1,17,0.09
2013-5-25,61.2,46.5,31.4,48.9,39.4,30.6,98,79,44,29.93,29.86,10,1,10,0.01
2013-5-26,67.5,53.8,36.2,48.4,43.0,35.2,97,70,40,29.87,29.76,12,2,12,0.00
2013-5-27,63.7,53.5,45.4,50.8,46.5,42.8,97,79,50,29.80,29.64,12,1,12,0.09
2013-5-28,60.4,52.1,44.6,52.8,48.5,43.0,98,88,65,29.70,29.63,10,1,10,0.13
2013-5-29,57.7,48.1,37.9,49.5,45.2,37.0,98,90,72,29.75,29.56,14,1,14,0.04
2013-5-30,63.1,50.6,40.2,48.2,42.0,36.1,97,75,40,29.99,29.75,17,2,17,0.01
2013-5-31,66.5,51.2,34.5,45.7,39.8,33.4,97,69,34,30.14,29.99,13,1,13,0.01
2013-6-1,69.7,54.1,36.5,48.8,42.6,35.5,96,69,38,30.11,29.83,10,1,10,0.00
2013-6-2,63.7,51.5,40.6,55.3,46.1,39.2,96,83,53,29.83,29.75,10,1,10,0.00
2013-6-3,71.7,54.8,36.5,51.3,44.7,35.7,100,73,38,29.91,29.81,15,1,15,0.01
2013-6-4,74.8,60.0,44.8,54.6,48.4,43.0,96,69,37,29.98,29.88,10,1,10,0.00
2013-6-5,80.6,63.7,42.8,56.2,49.4,42.0,98,65,33,29.90,29.75,8,1,12,0.00
2013-6-6,82.9,67.3,50.7,57.8,52.6,47.9,93,64,33,29.80,29.69,8,1,12,0.00
2013-6-7,80.0,65.3,50.4,56.9,48.0,35.1,95,58,25,29.74,29.64,22,2,22,0.00
2013-6-8,77.7,61.4,41.3,49.4,43.3,37.6,91,56,27,29.87,29.73,14,2,14,0.00
2013-6-9,74.3,59.7,44.3,46.8,41.4,33.3,90,56,24,29.76,29.66,14,2,14,0.00
2013-6-10,73.9,57.1,36.1,49.1,40.8,33.7,92,60,25,29.73,29.59,7,1,13,0.00
2013-6-11,68.9,54.7,37.3,49.5,41.2,34.9,92,63,36,29.86,29.62,16,2,16,0.00
2013-6-12,68.0,52.5,36.1,46.8,39.9,33.7,94,65,37,29.93,29.84,12,1,12,0.00
2013-6-13,67.8,51.5,36.0,47.4,40.8,33.8,94,70,37,29.94,29.88,14,2,14,0.00
2013-6-14,69.5,53.3,36.5,48.2,41.7,35.2,100,69,35,30.01,29.92,15,2,15,0.00
2013-6-15,76.7,58.8,37.3,51.5,43.0,35.4,95,62,26,29.92,29.79,9,1,9,0.00
2013-6-16,82.0,65.0,44.8,58.3,47.0,40.3,91,57,26,29.87,29.74,11,1,11,0.00
2013-6-17,81.5,67.6,54.5,60.4,51.8,45.8,86,60,29,29.80,29.62,11,1,11,0.02
2013-6-18,61.7,57.2,51.1,54.8,51.9,48.5,96,83,68,29.73,29.66,9,1,9,0.16
2013-6-19,53.7,51.3,48.3,52.3,49.9,47.4,97,95,92,29.73,29.62,10,1,10,0.20
2013-6-20,48.9,48.2,47.2,48.2,47.3,46.1,100,97,95,29.93,29.67,17,3,17,0.89
2013-6-21,59.4,51.1,44.8,54.2,49.0,44.0,98,93,74,30.00,29.93,10,1,10,0.23
2013-6-22,70.0,55.3,40.0,54.4,48.0,39.2,100,79,47,29.98,29.80,7,0,7,0.00
2013-6-23,72.5,59.8,42.3,58.1,51.1,41.5,99,76,45,29.80,29.47,9,1,9,0.00
2013-6-24,64.0,57.8,52.3,59.1,55.4,50.8,97,92,79,29.58,29.44,9,1,9,0.43
2013-6-25,67.5,56.4,45.6,57.8,52.3,44.8,98,87,64,29.74,29.58,9,1,9,0.20
2013-6-26,70.5,60.5,49.9,58.9,53.7,48.5,98,80,59,29.95,29.73,9,1,9,0.01
2013-6-27,76.2,64.2,50.6,64.4,57.7,49.5,98,81,58,30.02,29.94,11,1,11,0.00
2013-6-28,85.2,69.2,51.9,66.5,59.0,50.8,98,73,43,30.06,29.87,9,1,9,0.00
2013-6-29,76.7,66.7,56.6,66.4,61.3,54.9,96,83,67,29.92,29.77,12,1,12,0.09
2013-6-30,87.2,71.3,54.2,68.3,60.5,49.8,99,73,31,29.88,29.77,8,1,8,0.00
2013-7-1,93.5,75.7,56.9,69.6,62.6,55.3,96,68,34,29.81,29.67,11,2,11,0.00
2013-7-2,94.5,81.4,60.1,72.2,65.2,56.6,96,62,31,29.78,29.65,7,1,7,0.00
2013-7-3,86.9,74.2,59.5,61.8,55.7,40.3,92,55,23,29.78,29.66,10,1,11,0.00
2013-7-4,81.3,72.0,52.6,55.6,49.8,41.5,89,49,26,29.73,29.61,14,2,14,0.00
2013-7-5,77.8,66.6,49.6,54.4,48.8,41.7,90,56,30,29.70,29.61,12,2,13,0.00
2013-7-6,80.0,70.7,46.2,57.1,52.7,44.6,94,56,34,29.75,29.63,7,1,8,0.00
2013-7-7,83.4,70.8,48.2,58.2,52.0,45.8,93,55,30,29.71,29.59,11,1,11,0.00
2013-7-8,80.8,67.6,54.7,58.8,53.3,49.6,85,62,36,29.87,29.63,7,1,13,0.00
2013-7-9,84.8,74.1,47.5,59.1,53.5,45.1,96,52,27,29.95,29.79,10,1,10,0.00
2013-7-10,88.5,76.7,50.2,62.1,52.7,42.1,91,47,22,29.80,29.56,19,2,19,0.00
2013-7-11,79.1,70.0,50.9,53.0,42.3,28.2,83,40,17,29.68,29.58,14,3,14,0.00
2013-7-12,74.7,64.5,43.9,50.1,40.2,29.9,84,44,23,29.81,29.67,10,1,10,0.00
2013-7-13,75.3,62.0,44.6,49.4,44.1,38.1,87,56,30,29.97,29.80,12,1,12,0.00
2013-7-14,82.0,60.1,40.7,53.2,44.3,36.5,100,63,21,29.96,29.74,11,1,11,0.00
2013-7-15,80.8,63.4,41.4,49.8,42.5,32.7,91,52,18,29.81,29.74,11,1,12,0.00
2013-7-16,84.8,73.1,50.5,57.2,50.5,42.6,76,47,31,29.80,29.62,18,2,18,0.00
2013-7-17,88.8,77.8,58.2,61.8,55.4,50.7,90,48,28,29.85,29.63,13,1,13,0.00
2013-7-18,87.7,70.3,50.8,62.4,52.3,39.8,96,59,21,29.93,29.80,9,1,9,0.00
2013-7-19,91.3,77.5,50.2,60.8,51.0,38.7,90,45,18,29.87,29.71,11,1,11,0.00
2013-7-20,91.3,77.9,47.6,57.1,43.9,20.6,87,35,10,29.74,29.60,13,2,13,0.00
2013-7-21,89.2,73.7,45.4,54.5,46.8,39.2,87,43,20,29.66,29.57,10,2,10,0.00
2013-7-22,89.3,75.3,48.0,55.4,49.1,38.6,92,44,20,29.71,29.62,18,2,18,0.00
2013-7-23,91.7,78.6,47.8,59.8,49.8,39.2,83,40,17,29.81,29.70,6,1,11,0.00
2013-7-24,92.7,76.2,46.2,57.5,49.0,36.9,87,43,16,29.78,29.70,10,1,10,0.00
2013-7-25,93.0,70.7,45.8,59.0,46.8,35.2,88,49,16,29.82,29.74,12,1,12,0.00
2013-7-26,92.3,77.0,45.4,53.5,43.2,31.4,79,35,13,29.87,29.73,11,1,11,0.00
2013-7-27,86.8,67.8,49.5,51.6,40.9,28.2,80,44,14,29.79,29.65,10,1,10,0.00
2013-7-28,82.3,63.8,44.9,52.8,43.4,36.0,84,52,23,29.70,29.62,11,1,11,0.00
2013-7-29,83.4,62.9,43.4,58.5,45.8,38.4,92,59,25,29.76,29.67,9,0,9,0.00
2013-7-30,86.6,67.3,49.4,57.3,48.4,39.4,86,56,20,29.88,29.75,8,0,8,0.00
2013-7-31,85.8,67.8,49.1,56.0,48.6,42.0,84,54,23,29.92,29.75,10,1,10,0.00
2013-8-1,67.8,60.2,49.8,58.9,53.1,44.2,94,78,61,29.77,29.69,7,0,8,0.04
2013-8-2,61.6,56.9,54.1,58.5,55.6,53.0,97,95,89,29.93,29.75,9,1,9,0.47
2013-8-3,75.0,61.4,54.4,61.4,56.8,52.5,98,86,52,29.97,29.87,6,0,6,0.02
2013-8-4,82.8,72.3,49.1,62.9,56.7,48.3,99,61,34,29.91,29.76,9,1,9,0.00
2013-8-5,86.1,68.0,51.1,61.7,54.8,50.0,97,68,31,29.80,29.67,9,1,10,0.00
2013-8-6,89.0,74.9,53.2,63.7,54.2,45.8,94,54,24,29.80,29.66,10,1,10,0.00
2013-8-7,89.8,74.5,48.9,58.2,49.6,37.2,96,47,19,29.75,29.65,17,1,17,0.00
2013-8-8,89.5,67.6,48.8,63.1,51.3,40.5,88,61,20,29.77,29.66,7,0,7,0.00
2013-8-9,91.0,73.4,53.6,63.7,56.5,49.0,87,59,32,29.70,29.58,11,1,11,0.00
2013-8-10,89.3,74.2,59.1,63.0,56.3,46.5,93,58,27,29.74,29.62,16,1,16,0.02
2013-8-11,85.8,72.8,57.1,62.3,57.7,47.8,94,61,39,29.77,29.67,10,1,10,0.03
2013-8-12,88.8,75.4,52.7,60.8,55.7,49.8,95,54,30,29.80,29.70,8,1,8,0.00
2013-8-13,88.2,70.6,52.0,61.4,52.2,45.3,95,58,25,29.86,29.75,8,1,8,0.00
2013-8-14,92.3,71.2,50.5,62.2,54.0,47.4,93,60,25,29.78,29.62,12,0,12,0.00
2013-8-15,90.2,69.7,50.7,58.7,51.5,46.2,90,58,25,29.75,29.66,8,1,9,0.00
2013-8-16,87.0,67.7,52.0,57.8,51.6,46.6,92,61,29,29.80,29.72,11,1,11,0.00
2013-8-17,85.9,61.5,49.7,60.2,52.4,46.8,96,75,33,29.84,29.73,13,1,15,0.00
2013-8-18,84.4,70.7,46.0,54.7,49.4,43.0,96,51,24,29.89,29.78,15,2,15,0.00
2013-8-19,84.7,65.2,45.2,53.5,47.7,42.1,94,59,28,29.85,29.74,14,2,14,0.00
2013-8-20,82.5,61.2,43.7,49.4,41.4,29.9,93,57,17,29.88,29.77,11,1,11,0.00
2013-8-21,85.8,63.1,41.6,52.4,42.1,35.1,85,53,19,29.93,29.80,11,1,11,0.00
2013-8-22,91.2,73.2,45.1,58.4,46.9,38.1,83,43,17,29.81,29.60,8,1,8,0.00
2013-8-23,83.3,69.3,56.3,59.1,53.5,46.8,87,59,37,29.65,29.57,13,1,13,0.00
2013-8-24,81.6,62.5,47.1,56.3,48.3,44.5,95,65,33,29.70,29.58,2,1,10,0.01
2013-8-25,81.4,64.8,53.7,61.3,54.1,47.9,96,72,38,29.75,29.59,4,0,33,0.43
2013-8-26,77.3,62.1,50.3,58.4,53.0,48.7,98,76,38,29.81,29.73,2,1,10,0.00
2013-8-27,82.3,63.0,45.1,57.8,50.2,44.3,97,69,33,29.84,29.65,2,0,10,0.00
2013-8-28,84.5,64.4,49.4,58.6,51.6,47.5,95,68,32,29.73,29.60,2,1,11,0.00
2013-8-29,83.5,69.2,48.8,56.8,52.8,47.2,94,58,35,29.86,29.70,15,1,15,0.00
2013-8-30,80.9,67.5,46.2,59.0,50.0,41.0,94,58,30,29.95,29.85,12,2,14,0.02
2013-8-31,54.6,45.1,39.8,52.4,43.4,38.0,97,94,82,29.95,29.90,4,0,4,0.00
2013-9-1,91.1,66.6,45.6,56.4,47.5,41.6,88,56,25,29.76,29.59,3,1,12,0.00
2013-9-2,80.9,68.6,50.1,61.2,57.5,46.0,95,70,45,29.73,29.62,10,1,10,0.02
2013-9-3,86.7,69.1,56.8,61.5,57.1,52.3,93,69,36,29.78,29.72,11,1,11,0.00
2013-9-4,87.6,70.6,56.1,63.1,58.2,52.7,96,68,35,29.80,29.71,9,1,9,0.05
2013-9-5,78.7,67.7,60.4,66.6,62.5,58.4,96,84,64,29.83,29.64,16,1,16,1.20
2013-9-6,68.0,59.1,54.5,60.7,55.2,51.3,96,88,58,29.96,29.74,15,1,15,0.16
2013-9-7,70.3,55.1,47.6,58.5,52.5,46.8,98,92,51,29.98,29.89,8,0,12,0.03
2013-9-8,73.7,55.8,48.4,57.8,52.0,47.2,98,89,53,29.94,29.82,6,1,9,0.01
2013-9-9,82.8,62.9,46.4,61.1,53.2,45.5,98,75,37,29.87,29.76,7,0,7,0.00
2013-9-10,85.3,70.9,47.4,60.8,55.0,46.6,98,62,32,29.87,29.78,8,1,8,0.00
2013-9-11,89.9,71.2,51.4,58.8,54.5,49.5,95,60,28,29.88,29.78,10,1,12,0.00
2013-9-12,88.9,70.9,55.4,61.8,54.3,50.7,90,60,29,29.80,29.65,10,1,10,0.00
2013-9-13,91.4,67.4,47.9,60.5,53.6,46.7,98,68,26,29.68,29.54,10,0,10,0.00
2013-9-14,89.9,61.2,50.6,60.4,52.0,48.4,96,76,29,29.70,29.59,7,0,10,0.00
2013-9-15,89.1,70.1,52.7,59.4,53.0,47.3,88,58,29,29.64,29.42,30,1,30,0.03
2013-9-16,71.6,59.1,46.1,58.8,53.3,44.0,94,83,51,29.69,29.53,13,1,13,0.00
2013-9-17,69.9,52.8,40.2,53.0,47.8,39.2,98,85,49,29.68,29.56,12,1,12,0.58
2013-9-18,67.5,55.3,40.9,50.4,45.1,38.1,97,72,41,29.94,29.61,13,1,13,0.01
2013-9-19,72.1,55.5,35.8,50.4,41.8,34.8,98,66,28,30.01,29.80,11,1,11,0.00
2013-9-20,81.6,59.8,43.5,50.8,45.0,33.4,93,65,19,29.80,29.38,10,1,10,0.01
2013-9-21,66.9,54.4,41.2,51.0,46.0,38.6,93,75,49,29.54,29.39,14,1,14,0.02
2013-9-22,62.6,50.8,38.2,49.7,45.5,36.5,97,84,52,29.60,29.52,17,2,17,0.13
2013-9-23,59.9,51.6,44.7,50.0,45.8,41.3,100,82,58,29.79,29.60,16,3,16,0.00
2013-9-24,62.4,50.0,41.4,49.8,43.3,37.3,97,80,47,29.79,29.63,13,1,13,0.04
2013-9-25,55.6,45.8,36.1,47.0,41.6,35.0,98,86,66,29.77,29.65,10,1,10,0.02
2013-9-26,63.0,49.8,39.5,44.9,39.6,32.5,95,72,33,29.91,29.77,11,1,11,0.01
2013-9-27,52.6,45.1,35.0,44.2,40.1,32.9,96,83,60,29.92,29.81,13,2,13,0.00
2013-9-28,56.0,51.2,46.1,54.5,49.6,43.9,97,94,92,29.81,29.32,15,2,15,0.76
2013-9-29,53.3,47.3,42.8,51.0,44.3,41.1,96,89,75,29.54,29.35,22,5,22,0.15
2013-9-30,56.1,48.4,40.6,47.3,41.3,37.4,96,77,61,29.78,29.30,15,5,23,0.12
2013-10-1,52.9,44.0,34.8,45.7,39.2,33.4,97,84,65,30.02,29.78,15,2,15,0.04
2013-10-2,52.7,41.0,30.2,43.7,36.2,28.9,98,84,58,30.06,29.93,9,1,9,0.01
2013-10-3,59.2,46.9,31.5,41.0,35.4,28.9,94,68,37,30.30,29.95,10,1,10,0.00
2013-10-4,61.3,45.8,28.3,40.4,33.9,27.0,97,68,34,30.43,30.30,7,0,7,0.01
2013-10-5,64.7,42.9,28.5,41.3,33.5,27.2,97,75,32,30.35,30.17,7,0,7,0.00
2013-10-6,73.2,47.9,32.9,43.6,35.9,31.1,97,71,23,30.17,29.83,8,0,8,0.00
2013-10-7,62.7,45.6,31.4,46.3,36.3,29.9,100,73,44,29.84,29.71,24,2,24,0.01
2013-10-8,54.6,42.6,32.5,43.8,38.4,31.0,96,86,58,29.92,29.73,12,2,12,0.03
2013-10-9,57.0,45.9,32.9,45.6,39.7,31.9,100,81,53,29.99,29.83,8,1,8,0.01
2013-10-10,55.4,44.4,33.9,43.0,39.1,32.1,95,83,58,29.88,29.75,3,1,10,0.00
2013-10-11,56.0,47.4,32.4,41.2,37.0,31.4,96,69,43,30.01,29.89,7,0,7,0.00
2013-10-12,52.6,41.5,32.4,42.2,37.8,30.6,95,87,66,30.05,29.92,5,1,9,0.08
2013-10-13,44.4,30.8,27.5,36.4,29.1,26.0,96,93,74,30.15,30.04,5,0,5,0.01
2013-10-14,57.6,37.9,25.2,36.2,29.3,24.0,97,76,35,30.34,30.22,2,0,8,0.00
2013-10-15,57.7,36.6,23.3,35.3,29.8,21.8,96,78,40,30.35,30.11,2,0,7,0.01
2013-10-16,59.7,42.8,29.7,41.3,34.6,27.8,93,76,45,30.12,30.03,8,0,8,0.00
2013-10-17,56.7,38.3,24.9,41.5,32.4,23.5,97,81,53,30.20,30.08,10,1,10,0.00
2013-10-18,59.8,44.1,24.5,41.1,34.3,23.2,97,72,44,30.24,30.12,8,1,8,0.00
2013-10-19,61.1,39.3,25.6,43.4,32.5,24.1,97,80,42,30.12,30.00,7,0,7,0.00
2013-10-20,65.7,37.3,26.3,43.7,33.0,25.0,97,86,43,30.09,30.02,6,0,8,0.00
2013-10-21,68.7,43.4,29.1,47.4,36.1,27.8,98,79,39,30.14,30.06,7,0,7,0.01
2013-10-22,65.8,43.6,29.4,48.4,37.9,28.1,98,82,50,30.13,30.02,7,0,7,0.00
2013-10-23,64.5,45.3,32.6,48.5,40.5,30.6,97,85,52,30.08,29.99,9,1,9,0.01
2013-10-24,42.0,38.8,35.7,41.2,37.8,34.7,97,96,94,30.02,30.00,5,0,5,0.00
2013-10-25,58.6,36.5,27.6,46.9,33.7,26.6,98,90,65,30.21,30.05,2,0,7,0.00
2013-10-26,57.4,39.1,27.8,47.9,36.2,26.3,98,90,69,30.24,29.99,7,0,7,0.01
2013-10-27,47.3,38.5,26.6,44.3,34.9,25.4,98,88,54,29.99,29.71,25,2,25,0.04
2013-10-28,45.9,37.7,33.5,31.5,23.6,18.4,85,58,41,29.88,29.79,23,5,23,0.00
2013-10-29,47.9,32.6,20.7,26.6,21.0,16.7,88,65,39,29.96,29.85,8,1,9,0.00
2013-10-30,47.1,29.6,16.8,30.8,22.6,14.9,95,78,47,30.05,29.95,8,0,8,0.00
2013-10-31,56.9,40.0,27.4,40.2,32.4,25.0,92,76,50,30.07,29.97,9,1,9,0.00
2013-11-1,53.8,35.4,21.6,44.4,31.8,19.8,97,88,62,30.20,29.92,8,0,8,0.00
2013-11-2,49.7,40.6,33.7,44.8,39.3,32.7,97,95,89,29.92,29.48,18,1,21,0.37
2013-11-3,43.6,34.8,25.6,35.0,30.0,23.8,95,83,60,29.93,29.67,14,1,14,0.02
2013-11-4,40.9,29.1,21.4,31.5,25.3,19.6,96,86,62,30.14,29.92,5,0,5,0.00
2013-11-5,32.9,31.7,21.4,32.0,30.6,19.7,97,96,93,30.16,30.06,5,0,5,0.07
2013-11-6,38.4,34.1,32.1,36.2,32.8,31.4,97,95,91,30.31,30.15,7,1,7,0.06
2013-11-7,45.3,40.4,33.9,44.8,39.8,32.6,98,97,95,30.14,29.67,17,2,17,0.52
2013-11-8,47.9,38.3,27.6,39.9,35.0,26.4,97,88,67,30.08,29.81,17,2,17,0.00
2013-11-9,45.1,35.9,26.5,40.1,33.9,25.5,98,93,80,30.14,30.05,7,1,7,0.01
2013-11-10,45.6,40.3,37.9,41.7,38.3,36.5,96,92,85,30.15,30.03,7,1,7,0.00
2013-11-11,50.6,41.7,36.7,42.6,38.0,35.0,94,87,73,30.26,30.15,8,2,11,0.00
2013-11-12,45.1,40.5,34.4,42.6,39.1,33.1,97,95,89,30.27,30.12,9,0,10,0.00
2013-11-13,42.7,37.9,29.7,41.4,36.9,28.9,98,96,91,30.29,30.17,7,0,7,0.02
2013-11-14,41.7,31.5,28.3,40.6,30.8,27.6,98,97,93,30.17,29.96,4,0,4,0.00
2013-11-15,36.9,34.9,32.3,35.1,34.0,31.8,98,97,91,29.86,29.21,19,5,21,0.25
2013-11-16,37.0,35.3,33.0,35.4,34.0,31.4,97,95,93,29.20,29.10,18,4,18,0.01
2013-11-17,43.9,39.3,25.6,39.1,34.9,24.0,96,84,76,29.85,29.58,13,2,16,0.00
2013-11-18,40.6,39.7,39.2,35.3,34.6,34.2,84,82,80,29.83,29.81,11,3,13,0.00
2013-11-19,51.5,43.7,32.3,45.5,39.0,23.6,96,84,70,29.66,29.47,7,4,24,0.07
2013-11-20,34.3,27.5,19.2,20.9,8.5,1.3,66,46,24,30.38,29.70,5,2,13,0.00
2013-11-21,34.5,20.0,10.3,17.7,11.8,6.9,89,72,38,30.69,30.40,1,0,6,0.00
2013-11-22,34.6,21.1,11.3,20.4,15.2,8.9,93,79,51,30.76,30.63,4,0,8,0.00
2013-11-23,37.5,25.0,16.5,23.5,18.1,14.0,91,76,51,30.63,30.32,7,1,7,0.00
2013-11-24,40.6,23.8,14.4,27.4,18.9,12.5,95,83,55,30.36,30.26,6,0,6,0.00
2013-11-25,40.6,27.0,16.7,31.4,23.0,15.0,96,85,65,30.43,30.35,6,0,6,0.00
2013-11-26,40.9,29.5,21.7,31.2,25.7,19.7,100,86,68,30.35,30.16,6,0,6,0.00
2013-11-27,37.1,25.8,17.3,32.1,23.9,15.4,96,93,80,30.17,30.08,8,1,8,0.00
2013-11-28,40.7,27.3,17.9,33.0,24.5,15.9,97,89,73,30.19,30.09,4,0,5,0.01
2013-11-29,31.9,25.3,15.9,30.9,24.0,14.0,96,95,92,30.26,30.17,4,0,4,0.04
2013-11-30,32.8,30.7,27.1,32.0,29.9,26.1,97,97,96,30.26,30.09,9,0,9,0.03
2013-12-1,43.0,39.0,32.5,42.4,38.0,31.7,98,96,92,30.10,29.54,13,3,18,0.28
2013-12-2,41.5,33.7,28.8,39.9,28.7,22.8,95,82,64,29.82,29.50,15,2,15,0.00
2013-12-8,14.3,4.2,-5.8,1.7,-2.8,-9.6,92,74,49,30.57,30.39,2,1,11,0.00
2013-12-9,21.3,14.6,8.2,10.5,6.8,2.5,87,71,59,30.55,30.35,1,0,8,0.00
2013-12-10,25.9,17.3,10.0,17.0,12.4,7.7,91,81,67,30.45,30.32,2,0,6,0.00
2013-12-11,34.3,26.6,19.3,25.2,21.2,17.4,92,80,68,30.43,30.28,2,0,7,0.00
2013-12-12,35.8,26.8,19.0,28.2,22.5,17.6,95,85,65,30.26,30.06,3,0,11,0.00
2013-12-13,31.2,27.6,21.0,28.2,25.7,19.5,96,92,85,30.37,30.10,2,1,8,0.01
2013-12-14,38.1,34.4,26.4,37.6,33.1,25.1,98,95,89,30.38,30.21,8,0,8,0.02
2013-12-15,44.0,33.7,22.7,39.2,31.7,21.5,98,93,81,30.23,30.15,13,1,13,0.01
2013-12-16,42.8,33.2,24.3,38.9,31.7,23.1,98,94,83,30.32,30.23,10,1,10,0.00
2013-12-17,42.9,30.3,22.7,35.9,27.7,21.5,97,90,70,30.25,29.92,8,0,8,0.01
2013-12-18,34.2,29.2,23.1,33.8,27.9,21.6,100,95,90,29.93,29.79,8,1,8,0.00
2013-12-19,30.6,23.4,17.5,23.5,16.5,13.1,94,75,62,30.17,29.92,7,2,10,0.00
2013-12-20,25.7,22.4,15.0,25.2,20.0,12.1,100,90,83,30.08,29.61,9,0,9,0.00
2013-12-21,28.6,25.6,19.1,27.5,24.4,17.2,100,95,92,30.06,29.74,3,0,5,0.00
2013-12-22,33.6,30.2,27.0,32.2,29.1,26.3,100,96,91,30.23,30.05,5,0,5,0.11
2013-12-23,40.3,34.4,28.4,40.0,33.7,26.5,99,97,92,30.27,29.92,17,2,17,0.29
2013-12-24,37.9,25.9,16.9,33.2,23.9,15.1,100,92,81,30.52,30.27,8,1,8,0.01
2013-12-25,34.4,23.3,13.4,31.3,21.7,11.5,97,93,87,30.52,30.39,4,0,4,0.01
2013-12-26,24.2,22.8,21.4,23.0,21.6,20.1,100,95,95,30.40,30.38,0,0,0,0.00
2013-12-27,36.6,25.5,16.8,31.6,23.6,15.1,97,93,80,30.26,30.04,3,1,12,0.01
2013-12-28,27.6,24.9,22.4,26.4,23.9,21.4,96,96,95,30.44,30.18,1,0,6,0.00
2013-12-29,32.7,25.5,18.5,31.4,24.3,17.2,97,95,93,30.42,30.20,2,0,8,0.00
2013-12-30,32.3,26.4,18.0,31.5,25.5,16.6,97,96,94,30.26,30.09,1,0,8,0.03
2013-12-31,32.9,29.5,28.2,31.9,28.8,27.5,98,97,96,30.30,30.06,2,0,8,0.00
2014-1-1,35.3,30.7,28.3,34.8,30.1,27.8,98,98,97,30.39,30.27,6,1,6,0.01
2014-1-2,37.1,33.5,29.2,35.7,32.3,28.7,100,95,88,30.27,29.69,13,1,13,0.01